createdAt,value
2018-08-11T00:00:01.894Z,14.10
2018-08-11T00:02:30.064Z,14.10
2018-08-11T00:04:58.223Z,14.00
2018-08-11T00:07:26.397Z,14.00
2018-08-11T00:09:54.581Z,14.00
2018-08-11T00:12:22.754Z,14.00
2018-08-11T00:14:50.932Z,14.00
2018-08-11T00:17:19.108Z,14.00
2018-08-11T00:19:47.288Z,14.00
2018-08-11T00:22:15.467Z,14.00
2018-08-11T00:24:43.652Z,14.00
2018-08-11T00:27:11.841Z,14.00
2018-08-11T00:29:40.026Z,14.00
2018-08-11T00:32:08.204Z,14.00
2018-08-11T00:34:36.373Z,14.00
2018-08-11T00:37:04.554Z,14.00
2018-08-11T00:39:32.741Z,13.90
2018-08-11T00:42:00.924Z,14.00
2018-08-11T00:44:29.101Z,13.90
2018-08-11T00:46:57.301Z,13.90
2018-08-11T00:49:25.520Z,13.90
2018-08-11T00:51:53.652Z,13.90
2018-08-11T00:54:21.836Z,13.90
2018-08-11T00:56:50.019Z,13.90
2018-08-11T00:59:18.192Z,13.90
2018-08-11T01:01:46.367Z,13.80
2018-08-11T01:04:14.553Z,13.80
2018-08-11T01:06:42.728Z,13.70
2018-08-11T01:09:11.617Z,13.70
2018-08-11T01:11:39.892Z,13.70
2018-08-11T01:14:08.277Z,13.70
2018-08-11T01:16:48.079Z,13.70
2018-08-11T01:19:16.456Z,13.60
2018-08-11T01:21:44.630Z,13.50
2018-08-11T01:24:12.804Z,13.50
2018-08-11T01:26:40.986Z,13.50
2018-08-11T01:29:09.156Z,13.50
2018-08-11T01:31:37.336Z,13.40
2018-08-11T01:34:05.517Z,13.40
2018-08-11T01:36:33.693Z,13.40
2018-08-11T01:39:01.864Z,13.40
2018-08-11T01:41:30.104Z,13.40
2018-08-11T01:43:58.277Z,13.30
2018-08-11T01:46:26.456Z,13.30
2018-08-11T01:48:54.639Z,13.30
2018-08-11T01:51:22.808Z,13.30
2018-08-11T01:53:50.985Z,13.30
2018-08-11T01:56:19.158Z,13.30
2018-08-11T01:58:47.334Z,13.20
2018-08-11T02:01:15.510Z,13.20
2018-08-11T02:03:43.701Z,13.20
2018-08-11T02:06:11.872Z,13.20
2018-08-11T02:08:40.044Z,13.10
2018-08-11T02:11:08.271Z,13.10
2018-08-11T02:13:36.405Z,13.10
2018-08-11T02:16:04.604Z,13.20
2018-08-11T02:18:32.785Z,13.20
2018-08-11T02:21:00.958Z,13.20
2018-08-11T02:23:29.136Z,13.20
2018-08-11T02:25:57.313Z,13.20
2018-08-11T02:28:25.488Z,13.10
2018-08-11T02:30:53.653Z,13.10
2018-08-11T02:33:21.824Z,13.10
2018-08-11T02:35:50.010Z,13.10
2018-08-11T02:38:18.183Z,13.10
2018-08-11T02:40:46.356Z,13.00
2018-08-11T02:43:14.528Z,13.00
2018-08-11T02:45:42.709Z,13.00
2018-08-11T02:48:10.880Z,13.10
2018-08-11T02:50:39.053Z,13.10
2018-08-11T02:53:07.223Z,13.10
2018-08-11T02:55:35.396Z,13.10
2018-08-11T02:58:03.629Z,13.10
2018-08-11T03:00:31.825Z,13.10
2018-08-11T03:02:59.996Z,13.10
2018-08-11T03:05:28.173Z,13.20
2018-08-11T03:07:56.352Z,13.20
2018-08-11T03:10:24.520Z,13.30
2018-08-11T03:12:52.700Z,13.40
2018-08-11T03:15:20.868Z,13.40
2018-08-11T03:17:49.040Z,13.40
2018-08-11T03:20:17.225Z,13.50
2018-08-11T03:22:45.544Z,13.50
2018-08-11T03:25:13.717Z,13.50
2018-08-11T03:27:41.888Z,13.50
2018-08-11T03:30:10.078Z,13.50
2018-08-11T03:32:38.238Z,13.50
2018-08-11T03:35:06.560Z,13.50
2018-08-11T03:37:34.740Z,13.50
2018-08-11T03:40:02.915Z,13.50
2018-08-11T03:42:31.084Z,13.40
2018-08-11T03:44:59.261Z,13.40
2018-08-11T03:47:27.421Z,13.40
2018-08-11T03:49:55.588Z,13.40
2018-08-11T03:52:23.785Z,13.40
2018-08-11T03:54:51.950Z,13.30
2018-08-11T03:57:20.137Z,13.30
2018-08-11T03:59:48.308Z,13.20
2018-08-11T04:02:16.488Z,13.30
2018-08-11T04:04:44.660Z,13.30
2018-08-11T04:07:12.845Z,13.30
2018-08-11T04:09:41.017Z,13.20
2018-08-11T04:12:09.184Z,13.20
2018-08-11T04:14:37.359Z,13.20
2018-08-11T04:17:05.524Z,13.10
2018-08-11T04:19:33.697Z,13.10
2018-08-11T04:22:01.881Z,13.10
2018-08-11T04:24:30.056Z,13.10
2018-08-11T04:26:58.232Z,13.20
2018-08-11T04:29:26.405Z,13.30
2018-08-11T04:31:54.574Z,13.40
2018-08-11T04:34:22.753Z,13.50
2018-08-11T04:36:50.933Z,13.40
2018-08-11T04:39:19.110Z,13.50
2018-08-11T04:41:47.284Z,13.50
2018-08-11T04:44:15.464Z,13.50
2018-08-11T04:46:43.637Z,13.50
2018-08-11T04:49:11.812Z,13.50
2018-08-11T04:51:39.992Z,13.50
2018-08-11T04:54:08.161Z,13.50
2018-08-11T04:56:36.345Z,13.50
2018-08-11T04:59:04.513Z,13.50
2018-08-11T05:01:32.779Z,13.50
2018-08-11T05:04:00.947Z,13.50
2018-08-11T05:06:29.121Z,13.60
2018-08-11T05:08:57.303Z,13.70
2018-08-11T05:11:25.473Z,13.70
2018-08-11T05:13:53.645Z,13.80
2018-08-11T05:16:21.821Z,13.90
2018-08-11T05:18:49.999Z,14.00
2018-08-11T05:21:18.207Z,14.00
2018-08-11T05:23:46.380Z,14.20
2018-08-11T05:26:14.572Z,14.30
2018-08-11T05:28:42.764Z,14.40
2018-08-11T05:31:10.978Z,14.60
2018-08-11T05:33:39.150Z,14.80
2018-08-11T05:36:07.401Z,15.30
2018-08-11T05:38:35.780Z,16.20
2018-08-11T05:41:03.951Z,17.00
2018-08-11T05:43:32.145Z,17.40
2018-08-11T05:46:00.310Z,17.50
2018-08-11T05:48:28.484Z,17.50
2018-08-11T05:50:56.664Z,17.50
2018-08-11T05:53:24.845Z,17.40
2018-08-11T05:55:53.016Z,17.40
2018-08-11T05:58:21.196Z,17.40
2018-08-11T06:00:49.412Z,17.50
2018-08-11T06:03:17.617Z,17.50
2018-08-11T06:05:45.790Z,17.50
2018-08-11T06:08:13.952Z,17.60
2018-08-11T06:10:42.129Z,17.60
2018-08-11T06:13:10.304Z,17.70
2018-08-11T06:15:38.477Z,17.80
2018-08-11T06:18:06.824Z,17.90
2018-08-11T06:20:35.013Z,18.00
2018-08-11T06:23:03.193Z,18.10
2018-08-11T06:25:31.360Z,18.20
2018-08-11T06:27:59.684Z,18.20
2018-08-11T06:30:27.864Z,18.30
2018-08-11T06:32:56.136Z,18.20
2018-08-11T06:35:24.317Z,18.20
2018-08-11T06:37:52.493Z,18.30
2018-08-11T06:40:20.668Z,18.40
2018-08-11T06:42:48.833Z,18.50
2018-08-11T06:45:17.020Z,18.40
2018-08-11T06:47:45.192Z,18.20
2018-08-11T06:50:13.365Z,18.20
2018-08-11T06:52:41.536Z,18.30
2018-08-11T06:55:09.869Z,18.20
2018-08-11T06:57:38.042Z,18.20
2018-08-11T07:00:06.230Z,18.20
2018-08-11T07:02:34.396Z,18.20
2018-08-11T07:05:02.569Z,18.40
2018-08-11T07:07:30.745Z,18.60
2018-08-11T07:09:58.920Z,18.90
2018-08-11T07:12:27.098Z,19.10
2018-08-11T07:14:55.290Z,19.20
2018-08-11T07:17:23.472Z,19.50
2018-08-11T07:19:51.648Z,19.60
2018-08-11T07:22:19.871Z,19.80
2018-08-11T07:24:48.047Z,19.90
2018-08-11T07:27:16.208Z,20.10
2018-08-11T07:29:44.384Z,20.10
2018-08-11T07:32:12.674Z,20.20
2018-08-11T07:34:40.840Z,20.30
2018-08-11T07:37:09.017Z,20.50
2018-08-11T07:39:37.190Z,20.70
2018-08-11T07:42:05.366Z,20.80
2018-08-11T07:44:33.543Z,20.90
2018-08-11T07:47:01.715Z,20.90
2018-08-11T07:49:29.889Z,21.00
2018-08-11T07:51:58.060Z,21.00
2018-08-11T07:54:26.241Z,21.20
2018-08-11T07:56:54.413Z,21.20
2018-08-11T07:59:22.590Z,21.30
2018-08-11T08:01:50.764Z,21.50
2018-08-11T08:04:18.930Z,21.80
2018-08-11T08:08:11.604Z,22.00
2018-08-11T08:10:39.820Z,22.00
2018-08-11T08:13:08.000Z,21.70
2018-08-11T08:15:36.195Z,21.50
2018-08-11T08:18:04.401Z,21.30
2018-08-11T08:20:32.580Z,21.30
2018-08-11T08:23:00.760Z,21.40
2018-08-11T08:25:28.944Z,21.50
2018-08-11T08:27:57.128Z,21.50
2018-08-11T08:30:25.308Z,21.40
2018-08-11T08:32:53.481Z,21.50
2018-08-11T08:35:21.652Z,21.50
2018-08-11T08:37:49.832Z,21.60
2018-08-11T08:40:18.084Z,21.80
2018-08-11T08:42:46.277Z,21.90
2018-08-11T08:45:14.453Z,21.90
2018-08-11T08:47:42.616Z,22.10
2018-08-11T08:50:10.804Z,22.00
2018-08-11T08:52:38.983Z,21.80
2018-08-11T08:55:07.167Z,21.80
2018-08-11T08:57:35.356Z,21.90
2018-08-11T09:00:03.593Z,21.90
2018-08-11T09:02:31.756Z,21.90
2018-08-11T09:05:00.047Z,22.00
2018-08-11T09:07:28.113Z,21.90
2018-08-11T09:09:56.284Z,21.80
2018-08-11T09:12:24.559Z,21.90
2018-08-11T09:14:52.745Z,22.00
2018-08-11T09:17:20.924Z,22.10
2018-08-11T09:19:49.096Z,22.30
2018-08-11T09:22:17.300Z,22.60
2018-08-11T09:24:45.476Z,23.00
2018-08-11T09:27:13.668Z,23.20
2018-08-11T09:29:41.858Z,23.30
2018-08-11T09:32:10.161Z,23.50
2018-08-11T09:34:38.324Z,23.30
2018-08-11T09:37:06.503Z,23.20
2018-08-11T09:39:34.680Z,23.00
2018-08-11T09:42:02.964Z,23.00
2018-08-11T09:44:31.241Z,23.10
2018-08-11T09:46:59.519Z,23.00
2018-08-11T09:49:27.680Z,22.90
2018-08-11T09:51:55.856Z,22.80
2018-08-11T09:54:24.045Z,22.90
2018-08-11T09:56:52.220Z,23.00
2018-08-11T09:59:20.396Z,23.10
2018-08-11T10:01:52.812Z,23.20
2018-08-11T10:04:20.984Z,23.10
2018-08-11T10:06:49.157Z,23.10
2018-08-11T10:09:17.332Z,23.10
2018-08-11T10:11:45.504Z,23.00
2018-08-11T10:14:13.741Z,23.10
2018-08-11T10:16:41.900Z,23.20
2018-08-11T10:19:10.080Z,23.40
2018-08-11T10:23:00.327Z,23.70
2018-08-11T10:25:28.553Z,24.00
2018-08-11T10:27:56.726Z,24.00
2018-08-11T10:30:24.916Z,24.00
2018-08-11T10:32:53.096Z,24.10
2018-08-11T10:35:21.292Z,24.00
2018-08-11T10:37:49.452Z,24.10
2018-08-11T10:40:17.663Z,23.90
2018-08-11T10:42:45.941Z,23.80
2018-08-11T10:45:14.161Z,23.40
2018-08-11T10:47:42.346Z,23.10
2018-08-11T10:50:10.512Z,22.90
2018-08-11T10:52:38.696Z,22.80
2018-08-11T10:55:06.868Z,22.80
2018-08-11T10:57:35.052Z,22.80
2018-08-11T11:00:03.228Z,22.80
2018-08-11T11:02:31.465Z,23.10
2018-08-11T11:04:59.633Z,23.10
2018-08-11T11:07:29.008Z,23.30
2018-08-11T11:09:57.176Z,23.50
2018-08-11T11:12:25.340Z,23.50
2018-08-11T11:14:53.517Z,23.50
2018-08-11T11:17:21.692Z,23.50
2018-08-11T11:19:49.868Z,23.50
2018-08-11T11:22:18.040Z,23.50
2018-08-11T11:24:46.213Z,23.60
2018-08-11T11:27:14.392Z,23.90
2018-08-11T11:29:42.556Z,23.90
2018-08-11T11:32:10.748Z,23.90
2018-08-11T11:34:38.920Z,24.00
2018-08-11T11:37:07.126Z,24.30
2018-08-11T11:39:35.253Z,24.50
2018-08-11T11:42:03.433Z,24.70
2018-08-11T11:44:31.605Z,24.60
2018-08-11T11:46:59.768Z,24.50
2018-08-11T11:49:27.949Z,24.40
2018-08-11T11:51:56.128Z,24.40
2018-08-11T11:54:24.305Z,24.50
2018-08-11T11:56:52.468Z,24.50
2018-08-11T11:59:20.636Z,24.40
2018-08-11T12:01:48.804Z,24.20
2018-08-11T12:04:16.973Z,24.00
2018-08-11T12:06:45.144Z,23.50
2018-08-11T12:09:13.313Z,23.30
2018-08-11T12:11:41.482Z,23.10
2018-08-11T12:14:09.707Z,23.10
2018-08-11T12:16:38.048Z,23.00
2018-08-11T12:19:06.388Z,23.00
2018-08-11T12:21:34.572Z,23.00
2018-08-11T12:24:02.763Z,22.90
2018-08-11T12:26:30.950Z,23.00
2018-08-11T12:28:59.118Z,23.10
2018-08-11T12:31:27.293Z,23.20
2018-08-11T12:33:55.469Z,23.40
2018-08-11T12:36:23.636Z,23.60
2018-08-11T12:38:51.804Z,23.70
2018-08-11T12:41:19.977Z,23.90
2018-08-11T12:43:48.151Z,23.90
2018-08-11T12:46:16.328Z,23.70
2018-08-11T12:48:44.496Z,23.40
2018-08-11T12:51:12.681Z,23.40
2018-08-11T12:53:40.849Z,23.70
2018-08-11T12:56:09.021Z,24.00
2018-08-11T12:58:37.193Z,24.00
2018-08-11T13:01:05.400Z,23.90
2018-08-11T13:03:33.581Z,24.00
2018-08-11T13:06:01.765Z,24.40
2018-08-11T13:08:29.957Z,24.60
2018-08-11T13:10:58.126Z,24.70
2018-08-11T13:13:26.308Z,24.80
2018-08-11T13:15:54.503Z,24.60
2018-08-11T13:18:22.680Z,24.50
2018-08-11T13:20:50.944Z,24.50
2018-08-11T13:23:19.387Z,24.40
2018-08-11T13:25:47.577Z,24.20
2018-08-11T13:28:15.752Z,24.20
2018-08-11T13:30:43.968Z,24.40
2018-08-11T13:33:12.153Z,24.30
2018-08-11T13:35:40.562Z,24.40
2018-08-11T13:38:08.744Z,24.50
2018-08-11T13:40:36.916Z,24.40
2018-08-11T13:43:05.162Z,24.70
2018-08-11T13:45:33.534Z,24.80
2018-08-11T13:48:01.649Z,24.90
2018-08-11T13:50:29.825Z,24.80
2018-08-11T13:52:58.004Z,24.90
2018-08-11T13:55:26.188Z,24.90
2018-08-11T13:57:54.373Z,24.90
2018-08-11T14:00:22.718Z,24.80
2018-08-11T14:02:50.921Z,24.80
2018-08-11T14:05:20.017Z,24.90
2018-08-11T14:07:48.504Z,25.30
2018-08-11T14:10:16.884Z,25.40
2018-08-11T14:12:45.043Z,25.60
2018-08-11T14:15:13.208Z,25.80
2018-08-11T14:17:41.693Z,25.80
2018-08-11T14:20:10.577Z,25.60
2018-08-11T14:22:39.267Z,25.30
2018-08-11T14:25:07.951Z,25.40
2018-08-11T14:27:36.225Z,25.50
2018-08-11T14:30:06.520Z,25.50
2018-08-11T14:32:34.691Z,25.50
2018-08-11T14:35:02.863Z,25.30
2018-08-11T14:37:31.029Z,25.20
2018-08-11T14:39:59.239Z,25.10
2018-08-11T14:42:27.360Z,25.10
2018-08-11T14:44:55.644Z,25.10
2018-08-11T14:47:23.829Z,24.90
2018-08-11T14:49:51.994Z,24.70
2018-08-11T14:52:20.160Z,24.80
2018-08-11T14:54:48.327Z,25.00
2018-08-11T14:57:16.497Z,24.90
2018-08-11T14:59:44.660Z,24.60
2018-08-11T15:02:12.855Z,24.60
2018-08-11T15:04:41.017Z,24.60
2018-08-11T15:07:09.185Z,24.70
2018-08-11T15:09:37.391Z,24.80
2018-08-11T15:12:05.659Z,24.80
2018-08-11T15:14:33.816Z,24.60
2018-08-11T15:17:01.985Z,24.50
2018-08-11T15:19:30.157Z,24.50
2018-08-11T15:21:58.344Z,24.70
2018-08-11T15:24:26.525Z,24.80
2018-08-11T15:26:54.693Z,24.90
2018-08-11T15:29:23.860Z,24.90
2018-08-11T15:31:52.054Z,24.80
2018-08-11T15:34:20.224Z,24.50
2018-08-11T15:36:48.394Z,24.30
2018-08-11T15:39:16.565Z,24.10
2018-08-11T15:41:44.737Z,24.20
2018-08-11T15:44:12.949Z,24.20
2018-08-11T15:46:41.171Z,24.10
2018-08-11T15:49:09.417Z,24.00
2018-08-11T15:51:37.586Z,23.80
2018-08-11T15:54:06.454Z,23.80
2018-08-11T15:56:35.384Z,23.70
2018-08-11T15:59:04.452Z,23.60
2018-08-11T16:01:33.697Z,23.60
2018-08-11T16:04:02.398Z,23.70
2018-08-11T16:06:30.588Z,23.70
2018-08-11T16:08:58.752Z,23.70
2018-08-11T16:11:27.004Z,23.80
2018-08-11T16:13:55.972Z,23.70
2018-08-11T16:16:24.832Z,23.70
2018-08-11T16:18:52.988Z,23.70
2018-08-11T16:21:21.536Z,23.50
2018-08-11T16:23:50.112Z,23.40
2018-08-11T16:26:18.692Z,23.30
2018-08-11T16:28:46.865Z,23.20
2018-08-11T16:31:15.048Z,23.10
2018-08-11T16:33:43.247Z,23.10
2018-08-11T16:36:11.805Z,23.00
2018-08-11T16:38:39.972Z,23.10
2018-08-11T16:41:08.161Z,23.00
2018-08-11T16:43:36.364Z,23.00
2018-08-11T16:46:04.589Z,23.00
2018-08-11T16:48:32.771Z,22.90
2018-08-11T16:51:00.933Z,22.90
2018-08-11T16:53:29.100Z,23.00
2018-08-11T16:55:57.297Z,22.90
2018-08-11T16:58:25.448Z,22.80
2018-08-11T17:00:53.706Z,22.80
2018-08-11T17:03:21.822Z,22.80
2018-08-11T17:05:50.017Z,22.80
2018-08-11T17:08:18.140Z,22.70
2018-08-11T17:10:46.300Z,22.60
2018-08-11T17:13:14.467Z,22.60
2018-08-11T17:15:42.632Z,22.50
2018-08-11T17:18:10.801Z,22.40
2018-08-11T17:20:39.013Z,22.40
2018-08-11T17:23:07.130Z,22.30
2018-08-11T17:25:35.297Z,22.30
2018-08-11T17:28:03.544Z,22.20
2018-08-11T17:30:31.710Z,22.10
2018-08-11T17:32:59.885Z,22.10
2018-08-11T17:35:28.057Z,22.00
2018-08-11T17:37:56.256Z,22.00
2018-08-11T17:40:24.748Z,22.00
2018-08-11T17:42:53.461Z,21.90
2018-08-11T17:45:21.786Z,21.80
2018-08-11T17:47:49.948Z,21.70
2018-08-11T17:50:18.149Z,21.60
2018-08-11T17:52:46.821Z,21.60
2018-08-11T17:55:14.997Z,21.60
2018-08-11T17:57:43.168Z,21.50
2018-08-11T18:00:11.333Z,21.50
2018-08-11T18:02:39.499Z,21.40
2018-08-11T18:05:07.673Z,21.30
2018-08-11T18:07:35.846Z,21.20
2018-08-11T18:10:04.421Z,21.10
2018-08-11T18:12:32.580Z,21.00
2018-08-11T18:15:01.786Z,21.00
2018-08-11T18:17:29.944Z,20.90
2018-08-11T18:19:58.112Z,20.70
2018-08-11T18:22:26.288Z,20.70
2018-08-11T18:24:54.453Z,20.60
2018-08-11T18:27:22.621Z,20.50
2018-08-11T18:29:50.784Z,20.40
2018-08-11T18:32:18.964Z,20.30
2018-08-11T18:34:47.134Z,20.20
2018-08-11T18:37:15.289Z,20.10
2018-08-11T18:39:43.453Z,20.00
2018-08-11T18:42:12.679Z,20.00
2018-08-11T18:44:40.857Z,19.90
2018-08-11T18:47:09.853Z,19.80
2018-08-11T18:49:38.021Z,19.80
2018-08-11T18:52:06.265Z,19.70
2018-08-11T18:54:34.397Z,19.60
2018-08-11T18:57:02.556Z,19.50
2018-08-11T18:59:30.756Z,19.40
2018-08-11T19:01:58.926Z,19.30
2018-08-11T19:04:27.093Z,19.20
2018-08-11T19:06:55.274Z,19.10
2018-08-11T19:09:23.440Z,19.00
2018-08-11T19:11:51.605Z,18.90
2018-08-11T19:14:19.784Z,18.70
2018-08-11T19:16:47.952Z,18.60
2018-08-11T19:19:16.142Z,18.50
2018-08-11T19:21:44.316Z,18.30
2018-08-11T19:24:12.508Z,18.10
2018-08-11T19:26:40.683Z,18.00
2018-08-11T19:29:08.890Z,17.80
2018-08-11T19:31:38.052Z,17.50
2018-08-11T19:34:06.217Z,17.40
2018-08-11T19:36:34.392Z,17.30
2018-08-11T19:39:02.567Z,17.20
2018-08-11T19:41:30.740Z,17.10
2018-08-11T19:43:58.908Z,17.00
2018-08-11T19:46:27.123Z,16.90
2018-08-11T19:48:55.244Z,16.90
2018-08-11T19:51:23.408Z,16.80
2018-08-11T19:53:51.624Z,16.70
2018-08-11T19:56:19.793Z,16.70
2018-08-11T19:58:47.964Z,16.60
2018-08-11T20:01:16.170Z,16.50
2018-08-11T20:03:44.353Z,16.40
2018-08-11T20:06:12.526Z,16.40
2018-08-11T20:08:40.696Z,16.30
2018-08-11T20:11:08.878Z,16.20
2018-08-11T20:13:38.689Z,16.10
2018-08-11T20:16:07.353Z,16.10
2018-08-11T20:18:35.958Z,16.10
2018-08-11T20:21:04.420Z,15.90
2018-08-11T20:23:32.964Z,15.90
2018-08-11T20:26:02.153Z,15.80
2018-08-11T20:28:30.325Z,15.70
2018-08-11T20:30:58.496Z,15.60
2018-08-11T20:33:27.928Z,15.60
2018-08-11T20:35:56.639Z,15.50
2018-08-11T20:38:24.792Z,15.50
2018-08-11T20:40:53.426Z,15.40
2018-08-11T20:43:22.392Z,15.40
2018-08-11T20:45:50.875Z,15.30
2018-08-11T20:48:19.808Z,15.30
2018-08-11T20:50:48.684Z,15.40
2018-08-11T20:53:16.848Z,15.30
2018-08-11T20:55:45.037Z,15.20
2018-08-11T20:58:13.560Z,15.10
2018-08-11T21:00:41.728Z,15.10
2018-08-11T21:03:10.736Z,15.00
2018-08-11T21:05:38.909Z,15.00
2018-08-11T21:08:07.336Z,15.00
2018-08-11T21:13:03.739Z,14.90
2018-08-11T21:15:32.024Z,14.90
2018-08-11T21:18:00.104Z,14.80
2018-08-11T21:20:28.264Z,14.80
2018-08-11T21:22:56.448Z,14.80
2018-08-11T21:25:24.624Z,14.70
2018-08-11T21:27:52.796Z,14.70
2018-08-11T21:30:20.968Z,14.70
2018-08-11T21:32:49.132Z,14.70
2018-08-11T21:35:17.349Z,14.70
2018-08-11T21:37:45.508Z,14.50
2018-08-11T21:40:14.829Z,14.50
2018-08-11T21:42:43.267Z,14.40
2018-08-11T21:45:11.749Z,14.30
2018-08-11T21:47:40.748Z,14.20
2018-08-11T21:50:09.532Z,14.10
2018-08-11T21:52:38.336Z,14.10
2018-08-11T21:55:07.068Z,14.10
2018-08-11T21:57:36.012Z,14.00
2018-08-11T22:00:13.901Z,14.00
2018-08-11T22:02:42.065Z,14.00
2018-08-11T22:05:10.660Z,14.00
2018-08-11T22:07:38.856Z,14.00
2018-08-11T22:10:07.020Z,13.90
2018-08-11T22:12:35.176Z,13.90
2018-08-11T22:15:03.352Z,13.90
2018-08-11T22:17:31.516Z,13.80
2018-08-11T22:19:59.681Z,13.80
2018-08-11T22:22:27.852Z,13.70
2018-08-11T22:24:56.025Z,13.70
2018-08-11T22:27:24.193Z,13.70
2018-08-11T22:29:52.356Z,13.70
2018-08-11T22:32:20.519Z,13.60
2018-08-11T22:34:48.684Z,13.60
2018-08-11T22:37:16.900Z,13.50
2018-08-11T22:39:45.065Z,13.50
2018-08-11T22:42:13.225Z,13.50
2018-08-11T22:44:41.412Z,13.40
2018-08-11T22:47:09.649Z,13.40
2018-08-11T22:49:37.757Z,13.40
2018-08-11T22:52:06.165Z,13.40
2018-08-11T22:54:34.341Z,13.40
2018-08-11T22:57:02.516Z,13.40
2018-08-11T22:59:30.697Z,13.40
2018-08-11T23:01:58.876Z,13.50
2018-08-11T23:04:27.064Z,13.50
2018-08-11T23:06:55.232Z,13.50
2018-08-11T23:09:23.405Z,13.50
2018-08-11T23:11:51.560Z,13.50
2018-08-11T23:14:19.732Z,13.50
2018-08-11T23:16:47.905Z,13.50
2018-08-11T23:19:16.074Z,13.50
2018-08-11T23:21:44.236Z,13.50
2018-08-11T23:24:12.405Z,13.50
2018-08-11T23:26:40.572Z,13.50
2018-08-11T23:29:08.741Z,13.60
2018-08-11T23:31:36.905Z,13.60
2018-08-11T23:34:05.077Z,13.70
2018-08-11T23:36:33.240Z,13.70
2018-08-11T23:39:01.444Z,13.70
2018-08-11T23:41:29.609Z,13.70
2018-08-11T23:43:57.969Z,13.70
2018-08-11T23:46:26.145Z,13.70
2018-08-11T23:48:54.316Z,13.60
2018-08-11T23:51:22.480Z,13.70
2018-08-11T23:53:50.648Z,13.70
2018-08-11T23:56:18.821Z,13.70
2018-08-11T23:58:46.988Z,13.70
